Terminal Aerodrome Forecast
Issued by NWS

Home | Current Version | Previous Version | Text Only | Print | Product List | Glossary On
Versions: 1 2 3 4 5 6 7 8 9 10 11 12
000
FTAK31 PAJN 221700
TAFASI
TAF
PASI 221731Z 2218/2318 32008KT P6SM SCT010 OVC080
     FM230400 33005KT P6SM VCSH SCT010 OVC060
     FM230800 VRB05KT P6SM -SHRA BKN010 OVC050
     FM231400 VRB05KT P6SM VCSH SCT007 BKN010 BKN070
     FM231700 32007KT P6SM SCT010 BKN080=

USA.gov is the U.S. government's official web portal to all federal, state and local government web resources and services.